Bennington, New Hampshire
Current Conditions -  °F | °C
As of 8:52 AM on Monday 20 Oct 2014 (Local Time) from KAFN Reporting Station
Scattered Clouds Scattered Clouds  
Wind Chill: 31°   Ceiling: Unl
Heat Index: 35°   Visibility: 10mi
Dew Point: 26°   Wind: 5mph
Humidity: 70%   Direction: 220°SW
Pressure: 30.02"   Gusts: NA
Location:  43°N, 71.92°W
Report Text: KAFN 201252Z AUTO 22004KT 10SM SCT110 02/M03 A3002 RMK AO2 SLP179 T00171033
Loading
Personal Weather Stations






























Interactive Weather Map
Tropical Storm Tracking
New forecast layout! Learn more

10-Day Weather Forecast

Advertisements
Track Severe Weather on mobile